Details From EDDT - Berlin Tegel
To EFHK - Helsinki Vantaa
Flight Number -
Tags Decoded
Created
Modified
Stats Distance 629 nm / 1,166 km
Max Altitude 0 ft / 0 m
Waypoints 7
Social Downloads 5
Likes 0
Share VATSIM

Download

Looking for another format? Having issues loading an existing format? Contact us
Advertisement - Login to hide

Notes

Decoded

Route

EDDT RAKIT BODLA DEMUR KOLJA INTOR EFHK

ID Type Via Altitude Latitude Longitude Leg Dist Tot Dist Heading (true) Name
O EDDT APT - 0 ft / 0 m 52.55668˚ 13.27499˚ - 0 nm - -
RAKIT FIX - 0 ft / 0 m 53.17861˚ 13.91111˚ 43 nm 43 nm 31° / 32° -
BODLA FIX - 0 ft / 0 m 53.27583˚ 14.41000˚ 18 nm 62 nm 72° / 72° -
DEMUR FIX - 0 ft / 0 m 54.08000˚ 15.00778˚ 52 nm 115 nm 24° / 24° -
KOLJA FIX - 0 ft / 0 m 56.00000˚ 16.81467˚ 130 nm 246 nm 28° / 29° -
INTOR FIX - 0 ft / 0 m 59.82778˚ 25.18667˚ 351 nm 598 nm 46° / 53° -
O EFHK APT - 0 ft / 0 m 60.33028˚ 24.96450˚ 30 nm 629 nm 348° / 347° -

Altitude Profile

Advertisement - Login to hide

Weather


0- 5 10 15 20 25 30 35+ Temperature / ° C

Clouds and Precipitation
Forecast for 2018-05-26 00:00 UTC. Updated 5 hours ago

Ground ~20,000 ft ~40,000 ft Winds

EDDT

Details ICAO EDDT (TXL)
Name Berlin Tegel
Region Germany - Civil
Timezone Europe/Berlin (UTC+2.0)
Stats Elevation 122 ft / 37 m (AMSL)
Location 52.559100° 13.290188°
Runways 2
Magnetic Variation 3.811° E

METAR

EDDT 260420Z 08003KT 050V130 CAVOK 15/10 Q1022 NOSIG

Decode

TAF

TAF EDDT 252300Z 2600/2624 04005KT CAVOK PROB30 TEMPO 2614/2617 -TSRA SCT035CB

Decode

Departure Runways

ID Width Length Bearing (true) Bearing (mag) Surface Threshold Offset Overrun Length
08L 151 ft / 46 m 9,885 ft / 3,013 m 80.83° 77.02° Asphalt 0 ft / 0 m 226 ft / 69 m
08R 151 ft / 46 m 7,923 ft / 2,415 m 80.84° 77.03° Asphalt 341 ft / 104 m 207 ft / 63 m
26L 151 ft / 46 m 7,923 ft / 2,415 m 260.87° 257.06° Asphalt 722 ft / 220 m 157 ft / 48 m
26R 151 ft / 46 m 9,885 ft / 3,013 m 260.86° 257.05° Asphalt 0 ft / 0 m 223 ft / 68 m

EFHK

Details ICAO EFHK (HEL)
Name Helsinki Vantaa
Region Finland
Timezone Europe/Helsinki (UTC+3.0)
Stats Elevation 179 ft / 55 m (AMSL)
Location 60.320569° 24.952668°
Runways 3
Magnetic Variation 9.024° E

METAR

EFHK 260420Z 10004KT CAVOK 12/06 Q1030 NOSIG

Decode

TAF

TAF EFHK 260236Z 2603/2703 18004KT CAVOK= TAF EFOU 260226Z 2603/2703 25006KT CAVOK BECMG 2609/2611 32012KT

Decode

Destination Runways

ID Width Length Bearing (true) Bearing (mag) Surface Threshold Offset Overrun Length
04L 197 ft / 60 m 9,817 ft / 2,992 m 47.43° 38.41° Asphalt 800 ft / 244 m 0 ft / 0 m
04R 197 ft / 60 m 10,472 ft / 3,192 m 47.46° 38.44° Asphalt 262 ft / 80 m 0 ft / 0 m
15 197 ft / 60 m 9,497 ft / 2,895 m 153.08° 144.06° Asphalt 0 ft / 0 m 198 ft / 60 m
22L 197 ft / 60 m 10,472 ft / 3,192 m 227.50° 218.48° Asphalt 0 ft / 0 m 197 ft / 60 m
22R 197 ft / 60 m 9,817 ft / 2,992 m 227.46° 218.44° Asphalt 912 ft / 278 m 0 ft / 0 m
33 197 ft / 60 m 9,497 ft / 2,895 m 333.10° 324.08° Asphalt 0 ft / 0 m 197 ft / 60 m

Approach Navaids

Runway Type Ident Frequency Range Bearing (true) Bearing (mag) Slope Elevation
04L Localiser HTV 111.90 MHz 18 nm / 33 km 47.47° 38.44° - 179 ft / 55 m (AMSL)
04L Glidescope HTV 111.90 MHz 10 nm / 19 km 47.44° 38.42° 3.00° 179 ft / 55 m (AMSL)
04L DME HTV 111.90 MHz 18 nm / 33 km - - - 165 ft / 50 m (AMSL)
04R Localiser HG 111.50 MHz 18 nm / 33 km 47.50° 38.47° - 147 ft / 45 m (AMSL)
04R Glidescope HG 111.50 MHz 10 nm / 19 km 47.48° 38.45° 3.00° 149 ft / 45 m (AMSL)
04R DME HG 111.50 MHz 18 nm / 33 km - - - 206 ft / 63 m (AMSL)
15 Localiser HL 109.10 MHz 18 nm / 33 km 153.10° 144.08° - 179 ft / 55 m (AMSL)
15 Glidescope HL 109.10 MHz 10 nm / 19 km 153.09° 144.07° 3.00° 220 ft / 67 m (AMSL)
15 DME HL 109.10 MHz 18 nm / 33 km - - - 220 ft / 67 m (AMSL)
22L Localiser HK 110.30 MHz 18 nm / 33 km 227.45° 218.43° - 151 ft / 46 m (AMSL)
22L Glidescope HK 110.30 MHz 10 nm / 19 km 227.48° 218.45° 3.00° 154 ft / 47 m (AMSL)
22L DME HK 110.30 MHz 18 nm / 33 km - - - 205 ft / 62 m (AMSL)
22R Localiser HUO 110.70 MHz 18 nm / 33 km 227.42° 218.40° - 179 ft / 55 m (AMSL)
22R Glidescope HUO 110.70 MHz 10 nm / 19 km 227.44° 218.42° 3.00° 179 ft / 55 m (AMSL)
22R DME HUO 110.70 MHz 18 nm / 33 km - - - 207 ft / 63 m (AMSL)

Popular Alternatives